createdAt,value
2022-08-01T00:01:28.586Z,81.07
2022-08-01T00:06:59.131Z,75.81
2022-08-01T00:12:28.573Z,71.75
2022-08-01T00:17:57.600Z,71.30
2022-08-01T00:23:28.930Z,72.19
2022-08-01T00:28:57.675Z,78.01
2022-08-01T00:34:26.628Z,72.83
2022-08-01T00:39:57.279Z,74.00
2022-08-01T00:45:26.927Z,75.96
2022-08-01T00:50:57.049Z,72.96
2022-08-01T00:56:29.260Z,73.51
2022-08-01T01:01:58.413Z,75.07
2022-08-01T01:07:34.664Z,77.38
2022-08-01T01:13:09.037Z,80.14
2022-08-01T01:18:44.775Z,80.68
2022-08-01T01:24:23.524Z,82.54
2022-08-01T01:29:59.611Z,83.04
2022-08-01T01:35:34.062Z,86.52
2022-08-01T01:41:05.933Z,86.81
2022-08-01T01:46:38.733Z,85.32
2022-08-01T01:52:09.811Z,85.09
2022-08-01T01:57:42.808Z,84.91
2022-08-01T02:03:15.800Z,85.21
2022-08-01T02:08:46.449Z,85.17
2022-08-01T02:14:17.595Z,85.09
2022-08-01T02:19:48.474Z,86.29
2022-08-01T02:25:23.694Z,88.41
2022-08-01T02:30:52.602Z,87.68
2022-08-01T02:36:30.277Z,87.35
2022-08-01T02:42:05.695Z,88.87
2022-08-01T02:47:35.792Z,89.02
2022-08-01T02:53:08.283Z,89.52
2022-08-01T02:58:39.141Z,88.90
2022-08-01T03:04:09.980Z,87.74
2022-08-01T03:09:44.408Z,85.71
2022-08-01T03:15:16.079Z,85.55
2022-08-01T03:20:47.860Z,83.57
2022-08-01T03:26:19.976Z,83.44
2022-08-01T03:31:51.129Z,85.11
2022-08-01T03:37:25.681Z,85.03
2022-08-01T03:43:00.523Z,85.12
2022-08-01T03:48:35.157Z,84.06
2022-08-01T03:54:06.072Z,86.18
2022-08-01T03:59:37.653Z,87.24
2022-08-01T04:05:08.258Z,83.55
2022-08-01T04:10:39.562Z,84.97
2022-08-01T04:16:09.856Z,83.72
2022-08-01T04:21:39.914Z,81.27
2022-08-01T04:27:14.264Z,81.02
2022-08-01T04:32:47.406Z,81.03
2022-08-01T04:38:24.204Z,81.61
2022-08-01T04:43:55.397Z,82.72
2022-08-01T04:49:26.114Z,81.39
2022-08-01T04:54:55.133Z,80.75
2022-08-01T05:00:24.523Z,85.75
2022-08-01T05:05:54.508Z,85.71
2022-08-01T05:11:24.281Z,84.26
2022-08-01T05:16:53.674Z,82.97
2022-08-01T05:22:26.068Z,81.94
2022-08-01T05:27:55.282Z,82.81
2022-08-01T05:33:24.635Z,83.28
2022-08-01T05:38:54.534Z,84.45
2022-08-01T05:44:23.338Z,84.95
2022-08-01T05:49:52.376Z,86.72
2022-08-01T05:55:22.897Z,92.55
2022-08-01T06:00:52.482Z,92.38
2022-08-01T06:06:21.312Z,92.38
2022-08-01T06:11:55.930Z,91.09
2022-08-01T06:17:25.562Z,92.06
2022-08-01T06:22:54.237Z,90.70
2022-08-01T06:28:24.906Z,89.63
2022-08-01T06:33:54.426Z,88.02
2022-08-01T06:39:23.465Z,88.52
2022-08-01T06:44:53.333Z,87.27
2022-08-01T06:50:21.983Z,85.21
2022-08-01T06:55:51.426Z,85.06
2022-08-01T07:01:21.837Z,82.33
2022-08-01T07:06:51.513Z,82.24
2022-08-01T07:12:20.555Z,80.57
2022-08-01T07:17:50.898Z,79.25
2022-08-01T07:23:22.576Z,80.45
2022-08-01T07:28:52.317Z,79.62
2022-08-01T07:34:23.666Z,81.19
2022-08-01T07:39:52.297Z,80.27
2022-08-01T07:45:22.001Z,78.99
2022-08-01T07:50:52.512Z,78.58
2022-08-01T07:56:21.320Z,79.21
2022-08-01T08:01:50.399Z,76.97
2022-08-01T08:07:21.271Z,71.40
2022-08-01T08:12:50.901Z,61.99
2022-08-01T08:18:20.500Z,64.68
2022-08-01T08:24:09.031Z,63.24
2022-08-01T08:29:39.368Z,64.94
2022-08-01T08:35:12.371Z,67.07
2022-08-01T08:40:44.358Z,67.35
2022-08-01T08:46:14.743Z,61.90
2022-08-01T08:51:45.895Z,55.13
2022-08-01T08:57:17.716Z,56.88
2022-08-01T09:02:48.293Z,53.66
2022-08-01T09:08:18.469Z,52.25
2022-08-01T09:14:04.342Z,56.75
2022-08-01T09:19:41.553Z,61.05
2022-08-01T09:25:12.532Z,63.65
2022-08-01T09:30:42.801Z,65.19
2022-08-01T09:36:13.137Z,65.96
2022-08-01T09:41:42.813Z,66.38
2022-08-01T09:47:15.806Z,66.96
2022-08-01T09:52:57.108Z,67.69
2022-08-01T09:58:26.334Z,68.13
2022-08-01T10:04:09.856Z,67.76
2022-08-01T10:09:41.168Z,68.85
2022-08-01T10:15:11.690Z,71.37
2022-08-01T10:20:43.948Z,71.26
2022-08-01T10:26:14.805Z,71.79
2022-08-01T10:31:44.456Z,71.93
2022-08-01T10:37:21.179Z,73.58
2022-08-01T10:42:50.420Z,72.98
2022-08-01T10:48:24.772Z,73.76
2022-08-01T10:53:58.388Z,74.76
2022-08-01T10:59:51.112Z,74.98
2022-08-01T11:05:24.124Z,77.22
2022-08-01T11:11:02.429Z,80.56
2022-08-01T11:16:32.494Z,82.37
2022-08-01T11:22:03.561Z,83.71
2022-08-01T11:27:34.998Z,87.33
2022-08-01T11:33:10.828Z,88.77
2022-08-01T11:38:43.553Z,91.45
2022-08-01T11:44:20.889Z,99.22
2022-08-01T11:49:56.105Z,100.00
2022-08-01T11:55:25.785Z,100.00
2022-08-01T12:01:02.208Z,100.00
2022-08-01T12:06:31.276Z,100.00
2022-08-01T12:11:59.989Z,100.00
2022-08-01T12:17:38.310Z,100.00
2022-08-01T12:23:08.709Z,100.00
2022-08-01T12:28:42.579Z,100.00
2022-08-01T12:34:29.955Z,100.00
2022-08-01T12:39:59.672Z,100.00
2022-08-01T12:45:32.944Z,100.00
2022-08-01T12:51:05.329Z,100.00
2022-08-01T12:56:35.283Z,100.00
2022-08-01T13:02:12.138Z,100.00
2022-08-01T13:07:46.137Z,100.00
2022-08-01T13:13:22.343Z,100.00
2022-08-01T13:18:58.440Z,100.00
2022-08-01T13:24:30.182Z,100.00
2022-08-01T13:30:12.943Z,100.00
2022-08-01T13:35:42.966Z,100.00
2022-08-01T13:41:13.745Z,100.00
2022-08-01T13:46:49.235Z,100.00
2022-08-01T13:52:20.533Z,100.00
2022-08-01T13:57:51.143Z,100.00
2022-08-01T14:03:20.995Z,100.00
2022-08-01T14:09:02.201Z,100.00
2022-08-01T14:14:48.580Z,100.00
2022-08-01T14:20:20.735Z,100.00
2022-08-01T14:26:03.262Z,100.00
2022-08-01T14:31:37.796Z,100.00
2022-08-01T14:37:07.145Z,100.00
2022-08-01T14:42:37.544Z,100.00
2022-08-01T14:48:08.294Z,100.00
2022-08-01T14:53:37.862Z,100.00
2022-08-01T14:59:21.523Z,100.00
2022-08-01T15:04:52.902Z,100.00
2022-08-01T15:10:23.836Z,100.00
2022-08-01T15:15:53.220Z,100.00
2022-08-01T15:21:40.155Z,100.00
2022-08-01T15:27:12.150Z,100.00
2022-08-01T15:32:41.050Z,100.00
2022-08-01T15:38:11.987Z,100.00
2022-08-01T15:43:43.181Z,100.00
2022-08-01T15:49:14.467Z,100.00
2022-08-01T15:54:45.534Z,100.00
2022-08-01T16:00:16.703Z,100.00
2022-08-01T16:05:46.446Z,100.00
2022-08-01T16:11:17.693Z,100.00
2022-08-01T16:16:48.131Z,100.00
2022-08-01T16:22:17.396Z,100.00
2022-08-01T16:27:47.561Z,100.00
2022-08-01T16:33:17.107Z,100.00
2022-08-01T16:39:07.576Z,100.00
2022-08-01T16:44:38.318Z,100.00
2022-08-01T16:50:09.548Z,100.00
2022-08-01T16:55:49.286Z,100.00
2022-08-01T17:02:00.503Z,100.00
2022-08-01T17:07:11.492Z,100.00
2022-08-01T17:12:42.265Z,100.00
2022-08-01T17:18:12.153Z,100.00
2022-08-01T17:23:42.169Z,100.00
2022-08-01T17:29:10.757Z,100.00
2022-08-01T17:34:41.973Z,100.00
2022-08-01T17:40:38.724Z,100.00
2022-08-01T17:46:01.097Z,100.00
2022-08-01T17:51:31.534Z,100.00
2022-08-01T17:57:01.348Z,100.00
2022-08-01T18:02:30.016Z,100.00
2022-08-01T18:08:02.484Z,100.00
2022-08-01T18:13:32.152Z,100.00
2022-08-01T18:19:00.808Z,100.00
2022-08-01T18:24:31.664Z,100.00
2022-08-01T18:30:00.834Z,100.00
2022-08-01T18:35:52.465Z,100.00
2022-08-01T18:41:21.584Z,100.00
2022-08-01T18:46:50.912Z,100.00
2022-08-01T18:52:21.135Z,100.00
2022-08-01T18:57:59.447Z,100.00
2022-08-01T19:03:29.231Z,100.00
2022-08-01T19:09:02.051Z,100.00
2022-08-01T19:14:32.441Z,100.00
2022-08-01T19:20:02.006Z,100.00
2022-08-01T19:25:31.361Z,100.00
2022-08-01T19:31:26.783Z,100.00
2022-08-01T19:36:58.016Z,100.00
2022-08-01T19:42:27.510Z,100.00
2022-08-01T19:47:58.523Z,100.00
2022-08-01T19:53:28.029Z,100.00
2022-08-01T19:59:00.022Z,100.00
2022-08-01T20:04:31.242Z,100.00
2022-08-01T20:10:00.985Z,100.00
2022-08-01T20:15:30.382Z,100.00
2022-08-01T20:21:03.215Z,100.00
2022-08-01T20:26:32.812Z,100.00
2022-08-01T20:32:03.615Z,100.00
2022-08-01T20:38:05.620Z,100.00
2022-08-01T20:43:27.693Z,100.00
2022-08-01T20:48:59.144Z,100.00
2022-08-01T20:54:29.758Z,100.00
2022-08-01T21:00:03.101Z,100.00
2022-08-01T21:05:33.157Z,100.00
2022-08-01T21:11:04.562Z,100.00
2022-08-01T21:16:39.526Z,100.00
2022-08-01T21:22:17.608Z,100.00
2022-08-01T21:27:57.270Z,100.00
2022-08-01T21:33:27.024Z,100.00
2022-08-01T21:38:58.271Z,100.00
2022-08-01T21:44:31.155Z,100.00
2022-08-01T21:50:03.543Z,100.00
2022-08-01T21:55:37.663Z,100.00
2022-08-01T22:01:33.660Z,100.00
2022-08-01T22:07:23.423Z,100.00
2022-08-01T22:12:53.824Z,100.00
2022-08-01T22:18:24.459Z,100.00
2022-08-01T22:23:54.844Z,100.00
2022-08-01T22:29:28.932Z,100.00
2022-08-01T22:35:00.842Z,100.00
2022-08-01T22:40:33.536Z,100.00
2022-08-01T22:46:16.642Z,100.00
2022-08-01T22:51:58.991Z,100.00
2022-08-01T22:57:31.937Z,100.00
2022-08-01T23:03:08.077Z,100.00
2022-08-01T23:08:40.762Z,100.00
2022-08-01T23:14:11.226Z,100.00
2022-08-01T23:19:41.137Z,100.00
2022-08-01T23:25:13.302Z,100.00
2022-08-01T23:30:44.376Z,100.00
2022-08-01T23:36:14.730Z,100.00
2022-08-01T23:41:57.417Z,100.00
2022-08-01T23:47:27.887Z,100.00
2022-08-01T23:52:56.673Z,100.00
2022-08-01T23:58:26.876Z,100.00
